sensor_id;sensor_type;location;lat;lon;timestamp;P1;durP1;ratioP1;P2;durP2;ratioP2
3155;SDS011;1588;50.892;7.082;2022-12-15T00:04:54;22.70;;;7.40;;
3155;SDS011;1588;50.892;7.082;2022-12-15T00:10:14;38.43;;;7.03;;
3155;SDS011;1588;50.892;7.082;2022-12-15T00:15:33;20.73;;;8.77;;
3155;SDS011;1588;50.892;7.082;2022-12-15T00:20:57;13.67;;;5.50;;
3155;SDS011;1588;50.892;7.082;2022-12-15T00:26:17;16.00;;;7.67;;
3155;SDS011;1588;50.892;7.082;2022-12-15T00:31:37;18.60;;;7.13;;
3155;SDS011;1588;50.892;7.082;2022-12-15T00:36:59;16.37;;;6.63;;
3155;SDS011;1588;50.892;7.082;2022-12-15T00:42:18;41.77;;;8.60;;
3155;SDS011;1588;50.892;7.082;2022-12-15T00:47:21;19.83;;;7.10;;
3155;SDS011;1588;50.892;7.082;2022-12-15T00:52:24;18.33;;;6.70;;
3155;SDS011;1588;50.892;7.082;2022-12-15T00:57:44;16.30;;;7.90;;
3155;SDS011;1588;50.892;7.082;2022-12-15T01:03:11;31.33;;;8.50;;
3155;SDS011;1588;50.892;7.082;2022-12-15T01:08:33;15.30;;;7.07;;
3155;SDS011;1588;50.892;7.082;2022-12-15T01:13:53;21.13;;;6.13;;
3155;SDS011;1588;50.892;7.082;2022-12-15T01:19:12;24.70;;;5.83;;
3155;SDS011;1588;50.892;7.082;2022-12-15T01:24:33;14.97;;;6.03;;
3155;SDS011;1588;50.892;7.082;2022-12-15T01:29:37;18.27;;;6.20;;
3155;SDS011;1588;50.892;7.082;2022-12-15T01:34:40;14.30;;;7.17;;
3155;SDS011;1588;50.892;7.082;2022-12-15T01:39:44;16.27;;;5.83;;
3155;SDS011;1588;50.892;7.082;2022-12-15T01:50:44;18.97;;;6.30;;
3155;SDS011;1588;50.892;7.082;2022-12-15T01:55:52;21.93;;;7.53;;
3155;SDS011;1588;50.892;7.082;2022-12-15T02:00:55;21.27;;;7.13;;
3155;SDS011;1588;50.892;7.082;2022-12-15T02:05:59;11.93;;;6.17;;
3155;SDS011;1588;50.892;7.082;2022-12-15T02:11:12;23.87;;;7.53;;
3155;SDS011;1588;50.892;7.082;2022-12-15T02:16:37;19.83;;;7.73;;
3155;SDS011;1588;50.892;7.082;2022-12-15T02:21:55;15.50;;;6.33;;
3155;SDS011;1588;50.892;7.082;2022-12-15T02:27:23;12.40;;;5.90;;
3155;SDS011;1588;50.892;7.082;2022-12-15T02:32:47;14.20;;;7.00;;
3155;SDS011;1588;50.892;7.082;2022-12-15T02:37:59;14.07;;;6.23;;
3155;SDS011;1588;50.892;7.082;2022-12-15T02:43:02;16.10;;;6.57;;
3155;SDS011;1588;50.892;7.082;2022-12-15T02:48:11;20.07;;;6.70;;
3155;SDS011;1588;50.892;7.082;2022-12-15T02:53:26;17.23;;;6.43;;
3155;SDS011;1588;50.892;7.082;2022-12-15T02:58:46;11.83;;;6.73;;
3155;SDS011;1588;50.892;7.082;2022-12-15T03:03:59;25.03;;;6.30;;
3155;SDS011;1588;50.892;7.082;2022-12-15T03:09:04;21.30;;;6.90;;
3155;SDS011;1588;50.892;7.082;2022-12-15T03:14:06;8.50;;;5.60;;
3155;SDS011;1588;50.892;7.082;2022-12-15T03:19:10;20.73;;;5.03;;
3155;SDS011;1588;50.892;7.082;2022-12-15T03:24:22;16.83;;;6.43;;
3155;SDS011;1588;50.892;7.082;2022-12-15T03:29:24;19.37;;;6.97;;
3155;SDS011;1588;50.892;7.082;2022-12-15T03:34:28;13.97;;;7.27;;
3155;SDS011;1588;50.892;7.082;2022-12-15T03:39:31;10.80;;;6.43;;
3155;SDS011;1588;50.892;7.082;2022-12-15T03:44:33;18.20;;;5.90;;
3155;SDS011;1588;50.892;7.082;2022-12-15T03:49:37;14.43;;;6.67;;
3155;SDS011;1588;50.892;7.082;2022-12-15T03:54:39;16.50;;;6.13;;
3155;SDS011;1588;50.892;7.082;2022-12-15T03:59:41;16.73;;;7.47;;
3155;SDS011;1588;50.892;7.082;2022-12-15T04:04:45;10.60;;;5.40;;
3155;SDS011;1588;50.892;7.082;2022-12-15T04:09:48;19.73;;;6.47;;
3155;SDS011;1588;50.892;7.082;2022-12-15T04:14:50;11.17;;;5.03;;
3155;SDS011;1588;50.892;7.082;2022-12-15T04:19:54;13.33;;;5.53;;
3155;SDS011;1588;50.892;7.082;2022-12-15T04:25:13;14.60;;;5.97;;
3155;SDS011;1588;50.892;7.082;2022-12-15T04:30:34;8.77;;;5.07;;
3155;SDS011;1588;50.892;7.082;2022-12-15T04:35:56;17.47;;;7.87;;
3155;SDS011;1588;50.892;7.082;2022-12-15T04:41:16;15.27;;;6.43;;
3155;SDS011;1588;50.892;7.082;2022-12-15T04:46:37;14.90;;;6.50;;
3155;SDS011;1588;50.892;7.082;2022-12-15T04:51:58;13.67;;;5.30;;
3155;SDS011;1588;50.892;7.082;2022-12-15T04:57:17;14.43;;;6.20;;
3155;SDS011;1588;50.892;7.082;2022-12-15T05:02:37;10.10;;;3.83;;
3155;SDS011;1588;50.892;7.082;2022-12-15T05:07:58;8.60;;;5.30;;
3155;SDS011;1588;50.892;7.082;2022-12-15T05:13:18;11.40;;;5.90;;
3155;SDS011;1588;50.892;7.082;2022-12-15T05:18:38;17.17;;;6.60;;
3155;SDS011;1588;50.892;7.082;2022-12-15T05:23:59;17.87;;;5.60;;
3155;SDS011;1588;50.892;7.082;2022-12-15T05:29:19;13.47;;;5.50;;
3155;SDS011;1588;50.892;7.082;2022-12-15T05:34:39;18.70;;;5.70;;
3155;SDS011;1588;50.892;7.082;2022-12-15T05:39:43;17.63;;;6.00;;
3155;SDS011;1588;50.892;7.082;2022-12-15T05:44:45;16.50;;;5.50;;
3155;SDS011;1588;50.892;7.082;2022-12-15T05:49:48;11.87;;;6.67;;
3155;SDS011;1588;50.892;7.082;2022-12-15T05:54:52;18.77;;;7.17;;
3155;SDS011;1588;50.892;7.082;2022-12-15T05:59:54;11.73;;;6.03;;
3155;SDS011;1588;50.892;7.082;2022-12-15T06:05:03;17.43;;;5.93;;
3155;SDS011;1588;50.892;7.082;2022-12-15T06:10:10;20.50;;;6.20;;
3155;SDS011;1588;50.892;7.082;2022-12-15T06:15:13;10.73;;;5.47;;
3155;SDS011;1588;50.892;7.082;2022-12-15T06:20:16;28.93;;;6.10;;
3155;SDS011;1588;50.892;7.082;2022-12-15T06:25:29;16.20;;;6.27;;
3155;SDS011;1588;50.892;7.082;2022-12-15T06:30:33;13.40;;;6.40;;
3155;SDS011;1588;50.892;7.082;2022-12-15T06:35:35;19.87;;;8.17;;
3155;SDS011;1588;50.892;7.082;2022-12-15T06:40:43;21.00;;;6.90;;
3155;SDS011;1588;50.892;7.082;2022-12-15T06:45:46;22.60;;;7.70;;
3155;SDS011;1588;50.892;7.082;2022-12-15T06:50:49;26.23;;;7.33;;
3155;SDS011;1588;50.892;7.082;2022-12-15T06:55:54;37.53;;;9.43;;
3155;SDS011;1588;50.892;7.082;2022-12-15T07:01:03;24.17;;;9.40;;
3155;SDS011;1588;50.892;7.082;2022-12-15T07:06:10;22.40;;;8.67;;
3155;SDS011;1588;50.892;7.082;2022-12-15T07:11:17;20.47;;;8.43;;
3155;SDS011;1588;50.892;7.082;2022-12-15T07:16:26;18.80;;;7.80;;
3155;SDS011;1588;50.892;7.082;2022-12-15T07:21:29;22.03;;;8.33;;
3155;SDS011;1588;50.892;7.082;2022-12-15T07:26:34;23.13;;;8.37;;
3155;SDS011;1588;50.892;7.082;2022-12-15T07:31:36;33.93;;;10.30;;
3155;SDS011;1588;50.892;7.082;2022-12-15T07:36:39;23.67;;;9.27;;
3155;SDS011;1588;50.892;7.082;2022-12-15T07:41:42;24.03;;;9.20;;
3155;SDS011;1588;50.892;7.082;2022-12-15T07:46:45;21.00;;;8.37;;
3155;SDS011;1588;50.892;7.082;2022-12-15T07:51:48;34.17;;;8.20;;
3155;SDS011;1588;50.892;7.082;2022-12-15T07:56:52;37.50;;;12.93;;
3155;SDS011;1588;50.892;7.082;2022-12-15T08:01:55;32.73;;;10.43;;
3155;SDS011;1588;50.892;7.082;2022-12-15T08:06:58;36.33;;;11.30;;
3155;SDS011;1588;50.892;7.082;2022-12-15T08:12:02;30.50;;;10.77;;
3155;SDS011;1588;50.892;7.082;2022-12-15T08:17:04;36.60;;;10.60;;
3155;SDS011;1588;50.892;7.082;2022-12-15T08:22:07;36.00;;;12.60;;
3155;SDS011;1588;50.892;7.082;2022-12-15T08:27:18;30.50;;;12.00;;
3155;SDS011;1588;50.892;7.082;2022-12-15T08:32:21;27.63;;;9.70;;
3155;SDS011;1588;50.892;7.082;2022-12-15T08:37:24;29.13;;;10.43;;
3155;SDS011;1588;50.892;7.082;2022-12-15T08:42:29;30.37;;;12.10;;
3155;SDS011;1588;50.892;7.082;2022-12-15T08:47:34;31.70;;;10.60;;
3155;SDS011;1588;50.892;7.082;2022-12-15T08:52:36;30.33;;;11.70;;
3155;SDS011;1588;50.892;7.082;2022-12-15T08:57:42;41.13;;;14.20;;
3155;SDS011;1588;50.892;7.082;2022-12-15T09:02:44;31.00;;;12.53;;
3155;SDS011;1588;50.892;7.082;2022-12-15T09:07:47;51.07;;;14.13;;
3155;SDS011;1588;50.892;7.082;2022-12-15T09:12:54;38.60;;;13.90;;
3155;SDS011;1588;50.892;7.082;2022-12-15T09:17:56;41.30;;;14.07;;
3155;SDS011;1588;50.892;7.082;2022-12-15T09:22:58;43.43;;;14.63;;
3155;SDS011;1588;50.892;7.082;2022-12-15T09:28:04;37.13;;;12.67;;
3155;SDS011;1588;50.892;7.082;2022-12-15T09:33:07;45.87;;;15.33;;
3155;SDS011;1588;50.892;7.082;2022-12-15T09:38:12;31.30;;;13.07;;
3155;SDS011;1588;50.892;7.082;2022-12-15T09:43:17;40.80;;;14.47;;
3155;SDS011;1588;50.892;7.082;2022-12-15T09:48:22;39.93;;;14.90;;
3155;SDS011;1588;50.892;7.082;2022-12-15T09:53:39;45.07;;;12.80;;
3155;SDS011;1588;50.892;7.082;2022-12-15T09:58:49;43.97;;;12.60;;
3155;SDS011;1588;50.892;7.082;2022-12-15T10:04:00;38.93;;;13.13;;
3155;SDS011;1588;50.892;7.082;2022-12-15T10:09:10;36.03;;;9.70;;
3155;SDS011;1588;50.892;7.082;2022-12-15T10:14:21;29.77;;;11.30;;
3155;SDS011;1588;50.892;7.082;2022-12-15T10:19:30;44.17;;;12.57;;
3155;SDS011;1588;50.892;7.082;2022-12-15T10:24:40;37.13;;;12.13;;
3155;SDS011;1588;50.892;7.082;2022-12-15T10:29:45;30.10;;;11.10;;
3155;SDS011;1588;50.892;7.082;2022-12-15T10:34:50;32.23;;;12.13;;
3155;SDS011;1588;50.892;7.082;2022-12-15T10:39:52;46.57;;;12.00;;
3155;SDS011;1588;50.892;7.082;2022-12-15T10:44:57;33.73;;;10.70;;
3155;SDS011;1588;50.892;7.082;2022-12-15T10:50:15;33.00;;;12.30;;
3155;SDS011;1588;50.892;7.082;2022-12-15T10:55:28;33.43;;;11.83;;
3155;SDS011;1588;50.892;7.082;2022-12-15T11:00:35;32.80;;;11.77;;
3155;SDS011;1588;50.892;7.082;2022-12-15T11:05:51;40.43;;;14.87;;
3155;SDS011;1588;50.892;7.082;2022-12-15T11:10:55;31.57;;;10.97;;
3155;SDS011;1588;50.892;7.082;2022-12-15T11:16:26;33.23;;;10.50;;
3155;SDS011;1588;50.892;7.082;2022-12-15T11:21:29;33.13;;;11.70;;
3155;SDS011;1588;50.892;7.082;2022-12-15T11:26:39;38.37;;;11.70;;
3155;SDS011;1588;50.892;7.082;2022-12-15T11:31:49;30.83;;;10.87;;
3155;SDS011;1588;50.892;7.082;2022-12-15T11:36:59;33.40;;;11.50;;
3155;SDS011;1588;50.892;7.082;2022-12-15T11:42:30;34.60;;;12.30;;
3155;SDS011;1588;50.892;7.082;2022-12-15T11:47:48;33.00;;;11.70;;
3155;SDS011;1588;50.892;7.082;2022-12-15T11:53:04;41.77;;;14.60;;
3155;SDS011;1588;50.892;7.082;2022-12-15T11:58:21;33.83;;;12.90;;
3155;SDS011;1588;50.892;7.082;2022-12-15T12:03:45;35.60;;;11.60;;
3155;SDS011;1588;50.892;7.082;2022-12-15T12:09:01;35.53;;;13.33;;
3155;SDS011;1588;50.892;7.082;2022-12-15T12:14:17;33.93;;;13.67;;
3155;SDS011;1588;50.892;7.082;2022-12-15T12:19:33;37.87;;;12.60;;
3155;SDS011;1588;50.892;7.082;2022-12-15T12:24:42;29.83;;;11.33;;
3155;SDS011;1588;50.892;7.082;2022-12-15T12:29:49;39.93;;;13.23;;
3155;SDS011;1588;50.892;7.082;2022-12-15T12:34:57;41.67;;;13.60;;
3155;SDS011;1588;50.892;7.082;2022-12-15T12:40:13;51.47;;;14.67;;
3155;SDS011;1588;50.892;7.082;2022-12-15T12:45:19;38.50;;;12.10;;
3155;SDS011;1588;50.892;7.082;2022-12-15T12:50:27;27.67;;;10.57;;
3155;SDS011;1588;50.892;7.082;2022-12-15T12:55:35;39.40;;;13.47;;
3155;SDS011;1588;50.892;7.082;2022-12-15T13:00:40;37.27;;;14.43;;
3155;SDS011;1588;50.892;7.082;2022-12-15T13:06:20;42.93;;;13.27;;
3155;SDS011;1588;50.892;7.082;2022-12-15T13:11:44;34.00;;;12.73;;
3155;SDS011;1588;50.892;7.082;2022-12-15T13:16:56;36.13;;;13.27;;
3155;SDS011;1588;50.892;7.082;2022-12-15T13:22:20;34.17;;;11.93;;
3155;SDS011;1588;50.892;7.082;2022-12-15T13:27:25;35.67;;;12.57;;
3155;SDS011;1588;50.892;7.082;2022-12-15T13:32:36;38.10;;;13.53;;
3155;SDS011;1588;50.892;7.082;2022-12-15T13:37:45;33.30;;;12.63;;
3155;SDS011;1588;50.892;7.082;2022-12-15T13:42:55;37.97;;;14.00;;
3155;SDS011;1588;50.892;7.082;2022-12-15T13:47:58;38.97;;;12.50;;
3155;SDS011;1588;50.892;7.082;2022-12-15T13:53:05;37.43;;;13.23;;
3155;SDS011;1588;50.892;7.082;2022-12-15T13:58:16;40.00;;;13.17;;
3155;SDS011;1588;50.892;7.082;2022-12-15T14:03:21;46.10;;;15.73;;
3155;SDS011;1588;50.892;7.082;2022-12-15T14:08:27;41.90;;;12.83;;
3155;SDS011;1588;50.892;7.082;2022-12-15T14:13:32;37.90;;;12.33;;
3155;SDS011;1588;50.892;7.082;2022-12-15T14:18:36;49.17;;;14.90;;
3155;SDS011;1588;50.892;7.082;2022-12-15T14:23:42;42.07;;;13.27;;
3155;SDS011;1588;50.892;7.082;2022-12-15T14:28:46;38.10;;;13.83;;
3155;SDS011;1588;50.892;7.082;2022-12-15T14:33:49;39.57;;;13.80;;
3155;SDS011;1588;50.892;7.082;2022-12-15T14:39:02;36.03;;;11.40;;
3155;SDS011;1588;50.892;7.082;2022-12-15T14:44:07;34.90;;;12.10;;
3155;SDS011;1588;50.892;7.082;2022-12-15T14:49:19;33.77;;;12.23;;
3155;SDS011;1588;50.892;7.082;2022-12-15T14:54:28;34.50;;;12.87;;
3155;SDS011;1588;50.892;7.082;2022-12-15T14:59:45;39.83;;;12.10;;
3155;SDS011;1588;50.892;7.082;2022-12-15T15:04:55;37.70;;;12.83;;
3155;SDS011;1588;50.892;7.082;2022-12-15T15:10:15;40.50;;;11.67;;
3155;SDS011;1588;50.892;7.082;2022-12-15T15:15:24;39.07;;;11.13;;
3155;SDS011;1588;50.892;7.082;2022-12-15T15:20:37;35.47;;;12.60;;
3155;SDS011;1588;50.892;7.082;2022-12-15T15:25:42;43.77;;;13.97;;
3155;SDS011;1588;50.892;7.082;2022-12-15T15:30:51;42.37;;;12.00;;
3155;SDS011;1588;50.892;7.082;2022-12-15T15:35:56;39.63;;;13.33;;
3155;SDS011;1588;50.892;7.082;2022-12-15T15:41:07;41.30;;;13.87;;
3155;SDS011;1588;50.892;7.082;2022-12-15T15:46:17;54.50;;;15.73;;
3155;SDS011;1588;50.892;7.082;2022-12-15T15:51:22;35.17;;;12.57;;
3155;SDS011;1588;50.892;7.082;2022-12-15T15:56:27;33.73;;;12.13;;
3155;SDS011;1588;50.892;7.082;2022-12-15T16:01:30;35.73;;;12.73;;
3155;SDS011;1588;50.892;7.082;2022-12-15T16:06:32;41.93;;;16.07;;
3155;SDS011;1588;50.892;7.082;2022-12-15T16:11:37;42.00;;;12.87;;
3155;SDS011;1588;50.892;7.082;2022-12-15T16:16:39;47.20;;;13.10;;
3155;SDS011;1588;50.892;7.082;2022-12-15T16:21:42;30.57;;;11.60;;
3155;SDS011;1588;50.892;7.082;2022-12-15T16:26:46;33.20;;;12.50;;
3155;SDS011;1588;50.892;7.082;2022-12-15T16:31:50;31.77;;;11.70;;
3155;SDS011;1588;50.892;7.082;2022-12-15T16:36:52;33.20;;;11.97;;
3155;SDS011;1588;50.892;7.082;2022-12-15T16:41:56;26.37;;;10.23;;
3155;SDS011;1588;50.892;7.082;2022-12-15T16:47:09;35.97;;;11.63;;
3155;SDS011;1588;50.892;7.082;2022-12-15T16:52:21;42.20;;;12.20;;
3155;SDS011;1588;50.892;7.082;2022-12-15T16:57:35;39.10;;;12.40;;
3155;SDS011;1588;50.892;7.082;2022-12-15T17:02:37;29.67;;;10.57;;
3155;SDS011;1588;50.892;7.082;2022-12-15T17:07:41;35.50;;;10.77;;
3155;SDS011;1588;50.892;7.082;2022-12-15T17:12:45;31.60;;;11.10;;
3155;SDS011;1588;50.892;7.082;2022-12-15T17:18:00;29.30;;;10.90;;
3155;SDS011;1588;50.892;7.082;2022-12-15T17:23:03;32.37;;;10.70;;
3155;SDS011;1588;50.892;7.082;2022-12-15T17:28:13;32.83;;;10.80;;
3155;SDS011;1588;50.892;7.082;2022-12-15T17:33:17;27.47;;;8.83;;
3155;SDS011;1588;50.892;7.082;2022-12-15T17:38:22;37.00;;;11.03;;
3155;SDS011;1588;50.892;7.082;2022-12-15T17:43:27;36.27;;;9.73;;
3155;SDS011;1588;50.892;7.082;2022-12-15T17:48:30;33.70;;;11.97;;
3155;SDS011;1588;50.892;7.082;2022-12-15T17:53:32;34.63;;;11.20;;
3155;SDS011;1588;50.892;7.082;2022-12-15T17:58:36;27.40;;;10.40;;
3155;SDS011;1588;50.892;7.082;2022-12-15T18:03:39;28.57;;;9.30;;
3155;SDS011;1588;50.892;7.082;2022-12-15T18:08:41;33.90;;;11.60;;
3155;SDS011;1588;50.892;7.082;2022-12-15T18:13:45;35.73;;;10.97;;
3155;SDS011;1588;50.892;7.082;2022-12-15T18:18:47;32.10;;;12.07;;
3155;SDS011;1588;50.892;7.082;2022-12-15T18:23:50;31.00;;;9.77;;
3155;SDS011;1588;50.892;7.082;2022-12-15T18:28:53;31.10;;;10.20;;
3155;SDS011;1588;50.892;7.082;2022-12-15T18:33:56;32.53;;;10.80;;
3155;SDS011;1588;50.892;7.082;2022-12-15T18:39:16;25.40;;;9.97;;
3155;SDS011;1588;50.892;7.082;2022-12-15T18:44:21;30.00;;;11.20;;
3155;SDS011;1588;50.892;7.082;2022-12-15T18:49:25;42.97;;;11.60;;
3155;SDS011;1588;50.892;7.082;2022-12-15T18:54:27;35.73;;;12.97;;
3155;SDS011;1588;50.892;7.082;2022-12-15T18:59:30;44.30;;;13.17;;
3155;SDS011;1588;50.892;7.082;2022-12-15T19:04:33;60.13;;;11.30;;
3155;SDS011;1588;50.892;7.082;2022-12-15T19:09:35;39.40;;;12.77;;
3155;SDS011;1588;50.892;7.082;2022-12-15T19:14:39;38.80;;;11.27;;
3155;SDS011;1588;50.892;7.082;2022-12-15T19:19:42;39.17;;;11.00;;
3155;SDS011;1588;50.892;7.082;2022-12-15T19:25:01;40.20;;;13.37;;
3155;SDS011;1588;50.892;7.082;2022-12-15T19:30:11;28.23;;;9.37;;
3155;SDS011;1588;50.892;7.082;2022-12-15T19:35:16;41.23;;;8.30;;
3155;SDS011;1588;50.892;7.082;2022-12-15T19:40:19;23.77;;;7.80;;
3155;SDS011;1588;50.892;7.082;2022-12-15T19:45:25;33.83;;;10.30;;
3155;SDS011;1588;50.892;7.082;2022-12-15T19:50:30;29.97;;;11.03;;
3155;SDS011;1588;50.892;7.082;2022-12-15T19:55:35;23.20;;;10.13;;
3155;SDS011;1588;50.892;7.082;2022-12-15T20:00:42;34.03;;;8.63;;
3155;SDS011;1588;50.892;7.082;2022-12-15T20:05:45;33.47;;;8.20;;
3155;SDS011;1588;50.892;7.082;2022-12-15T20:10:47;20.00;;;7.90;;
3155;SDS011;1588;50.892;7.082;2022-12-15T20:15:51;33.83;;;9.50;;
3155;SDS011;1588;50.892;7.082;2022-12-15T20:20:54;34.50;;;9.70;;
3155;SDS011;1588;50.892;7.082;2022-12-15T20:25:56;26.53;;;9.17;;
3155;SDS011;1588;50.892;7.082;2022-12-15T20:31:00;17.87;;;6.40;;
3155;SDS011;1588;50.892;7.082;2022-12-15T20:36:02;34.77;;;10.30;;
3155;SDS011;1588;50.892;7.082;2022-12-15T20:41:13;24.10;;;9.27;;
3155;SDS011;1588;50.892;7.082;2022-12-15T20:46:20;27.53;;;9.23;;
3155;SDS011;1588;50.892;7.082;2022-12-15T20:51:24;28.87;;;9.00;;
3155;SDS011;1588;50.892;7.082;2022-12-15T20:56:28;26.60;;;9.40;;
3155;SDS011;1588;50.892;7.082;2022-12-15T21:01:33;24.10;;;8.00;;
3155;SDS011;1588;50.892;7.082;2022-12-15T21:06:36;31.77;;;8.90;;
3155;SDS011;1588;50.892;7.082;2022-12-15T21:11:38;22.77;;;7.63;;
3155;SDS011;1588;50.892;7.082;2022-12-15T21:16:42;25.60;;;9.40;;
3155;SDS011;1588;50.892;7.082;2022-12-15T21:21:46;27.73;;;9.43;;
3155;SDS011;1588;50.892;7.082;2022-12-15T21:26:51;30.63;;;9.70;;
3155;SDS011;1588;50.892;7.082;2022-12-15T21:31:55;22.77;;;8.57;;
3155;SDS011;1588;50.892;7.082;2022-12-15T21:36:57;29.47;;;8.63;;
3155;SDS011;1588;50.892;7.082;2022-12-15T21:42:03;27.67;;;8.77;;
3155;SDS011;1588;50.892;7.082;2022-12-15T21:47:24;36.23;;;9.27;;
3155;SDS011;1588;50.892;7.082;2022-12-15T21:52:47;19.37;;;7.43;;
3155;SDS011;1588;50.892;7.082;2022-12-15T21:57:50;17.77;;;7.30;;
3155;SDS011;1588;50.892;7.082;2022-12-15T22:02:54;25.10;;;8.20;;
3155;SDS011;1588;50.892;7.082;2022-12-15T22:07:57;16.10;;;6.63;;
3155;SDS011;1588;50.892;7.082;2022-12-15T22:13:14;27.27;;;8.67;;
3155;SDS011;1588;50.892;7.082;2022-12-15T22:18:20;23.47;;;8.17;;
3155;SDS011;1588;50.892;7.082;2022-12-15T22:23:24;16.03;;;7.10;;
3155;SDS011;1588;50.892;7.082;2022-12-15T22:28:26;25.23;;;8.43;;
3155;SDS011;1588;50.892;7.082;2022-12-15T22:33:31;20.20;;;8.10;;
3155;SDS011;1588;50.892;7.082;2022-12-15T22:38:33;28.83;;;9.37;;
3155;SDS011;1588;50.892;7.082;2022-12-15T22:43:36;22.93;;;7.73;;
3155;SDS011;1588;50.892;7.082;2022-12-15T22:48:46;24.23;;;7.83;;
3155;SDS011;1588;50.892;7.082;2022-12-15T22:53:48;27.67;;;10.03;;
3155;SDS011;1588;50.892;7.082;2022-12-15T22:58:51;22.73;;;8.90;;
3155;SDS011;1588;50.892;7.082;2022-12-15T23:03:59;37.57;;;10.07;;
3155;SDS011;1588;50.892;7.082;2022-12-15T23:09:02;16.73;;;8.50;;
3155;SDS011;1588;50.892;7.082;2022-12-15T23:14:06;17.80;;;8.60;;
3155;SDS011;1588;50.892;7.082;2022-12-15T23:19:11;33.27;;;11.00;;
3155;SDS011;1588;50.892;7.082;2022-12-15T23:24:23;22.13;;;7.80;;
3155;SDS011;1588;50.892;7.082;2022-12-15T23:29:26;17.70;;;6.20;;
3155;SDS011;1588;50.892;7.082;2022-12-15T23:34:32;23.47;;;7.60;;
3155;SDS011;1588;50.892;7.082;2022-12-15T23:39:35;22.87;;;7.57;;
3155;SDS011;1588;50.892;7.082;2022-12-15T23:44:37;26.40;;;8.97;;
3155;SDS011;1588;50.892;7.082;2022-12-15T23:49:43;31.83;;;8.90;;
3155;SDS011;1588;50.892;7.082;2022-12-15T23:54:46;27.73;;;8.73;;
3155;SDS011;1588;50.892;7.082;2022-12-15T23:59:48;20.40;;;6.00;;
